Pagina principale
METAR-TAF:

METAR-TAF

Aeroporti :

Palermo, Italia

Aeroporto di Palermo-Punta Raisi

latitudine: 38-11N, longitudine: 013-06E, altezza: 21 m

Osservazione

Il bollettino è stato emesso 15 minuti fa, alle 00:50 UTC
Vento 18 kt da sud-ovest
Temperature 14°C
Umidità 77%
Pressione 1018 hPa
Visibilità 10 km o più
Poco nuvoloso ad un'altezza di 2500 ft

METAR: LICJ 170050Z 23018KT 9999 FEW025 14/10 Q1018

Ora: 02:05 (01:05 UTC)

Previsione

Il bollettino è stato emesso 2 ore e 5 minuti fa, alle 23:00 UTC
Previsione valida dal 17 alle 00 UTC al 17 alle 24 UTC
Vento 22 kt da ovest
Visibilità 10 km o più
Nubi sparse ad un'altezza di 3000 ft
Evoluzione graduale
dal 17 alle 22 UTC al 17 alle 24 UTC
Vento 10 kt da ovest/nord-ovest

TAF: LICJ 162300Z 1700/1724 28022KT 9999 SCT030 BECMG 1722/1724 30010KT

Osservazioni e previsioni meteorologiche di più di 4000 aeroporti (messaggi METAR e TAF).

Le stazioni disponibili sono rappresentate dai dischi gialli e rossi sulla carta.

Puntare il mouse per vedere il nome della stazione.

Clicca sopra per visualizzare le osservazioni e previsioni meteorologiche.

Per cambiare la mappa : fare clic sui pulsanti verdi con una croce nera per ingrandire, il pulsante verde con un trattino per diminuire, o sulla freccia verde per le mappe adiacenti.


METAR-TAF: